Alamosa, Colorado
Current Conditions -  °F | °C
As of 1:52 PM on Saturday 22 Nov 2014 (Local Time) from KALS Reporting Station
Clear Clear  
Wind Chill: 41°   Ceiling: Unl
Heat Index: 46°   Visibility: 10mi
Dew Point: 15°   Wind: 9mph
Humidity: 29%   Direction: 110°ESE
Pressure: 29.88"   Gusts: NA
Location:  37.47°N, 105.87°W
Report Text: KALS 222052Z AUTO 11008KT 10SM CLR 08/M09 A2988 RMK AO2 SLP130 T00781094 58041
Loading
Personal Weather Stations






























Interactive Weather Map New forecast layout! Learn more

10-Day Weather Forecast

Advertisements
Track Severe Weather on mobile